sensor_id;sensor_type;location;lat;lon;timestamp;temperature;humidity
37478;DHT22;23334;54.316;10.182;2022-12-29T00:01:27;7.90;99.90
37478;DHT22;23334;54.316;10.182;2022-12-29T00:03:53;7.90;99.90
37478;DHT22;23334;54.316;10.182;2022-12-29T00:06:18;7.90;99.90
37478;DHT22;23334;54.316;10.182;2022-12-29T00:08:44;7.90;99.90
37478;DHT22;23334;54.316;10.182;2022-12-29T00:11:12;7.90;99.90
37478;DHT22;23334;54.316;10.182;2022-12-29T00:13:38;7.90;99.90
37478;DHT22;23334;54.316;10.182;2022-12-29T00:16:23;8.00;99.90
37478;DHT22;23334;54.316;10.182;2022-12-29T00:18:48;8.00;99.90
37478;DHT22;23334;54.316;10.182;2022-12-29T00:21:16;8.10;99.90
37478;DHT22;23334;54.316;10.182;2022-12-29T00:24:01;8.10;99.90
37478;DHT22;23334;54.316;10.182;2022-12-29T00:26:48;8.10;99.90
37478;DHT22;23334;54.316;10.182;2022-12-29T00:29:33;8.10;99.90
37478;DHT22;23334;54.316;10.182;2022-12-29T00:32:17;8.10;99.90
37478;DHT22;23334;54.316;10.182;2022-12-29T00:35:01;8.20;99.90
37478;DHT22;23334;54.316;10.182;2022-12-29T00:37:42;8.20;99.90
37478;DHT22;23334;54.316;10.182;2022-12-29T00:40:46;8.20;99.90
37478;DHT22;23334;54.316;10.182;2022-12-29T00:43:30;8.30;99.90
37478;DHT22;23334;54.316;10.182;2022-12-29T00:46:28;8.30;99.90
37478;DHT22;23334;54.316;10.182;2022-12-29T00:48:53;8.30;99.90
37478;DHT22;23334;54.316;10.182;2022-12-29T00:51:37;8.30;99.90
37478;DHT22;23334;54.316;10.182;2022-12-29T00:54:03;8.30;99.90
37478;DHT22;23334;54.316;10.182;2022-12-29T00:56:28;8.40;99.90
37478;DHT22;23334;54.316;10.182;2022-12-29T00:58:53;8.40;99.90
37478;DHT22;23334;54.316;10.182;2022-12-29T01:01:19;8.50;99.90
37478;DHT22;23334;54.316;10.182;2022-12-29T01:06:11;8.50;99.90
37478;DHT22;23334;54.316;10.182;2022-12-29T01:08:37;8.40;99.90
37478;DHT22;23334;54.316;10.182;2022-12-29T01:11:07;8.50;99.90
37478;DHT22;23334;54.316;10.182;2022-12-29T01:13:34;8.50;99.90
37478;DHT22;23334;54.316;10.182;2022-12-29T01:18:26;8.60;99.90
37478;DHT22;23334;54.316;10.182;2022-12-29T01:21:04;8.60;99.90
37478;DHT22;23334;54.316;10.182;2022-12-29T01:23:31;8.60;99.90
37478;DHT22;23334;54.316;10.182;2022-12-29T01:25:57;8.60;99.90
37478;DHT22;23334;54.316;10.182;2022-12-29T01:28:23;8.60;99.90
37478;DHT22;23334;54.316;10.182;2022-12-29T01:30:48;8.70;99.90
37478;DHT22;23334;54.316;10.182;2022-12-29T01:35:40;8.70;99.90
37478;DHT22;23334;54.316;10.182;2022-12-29T01:38:05;8.70;99.90
37478;DHT22;23334;54.316;10.182;2022-12-29T01:40:31;8.80;99.90
37478;DHT22;23334;54.316;10.182;2022-12-29T01:47:53;8.80;99.90
37478;DHT22;23334;54.316;10.182;2022-12-29T01:50:51;8.90;99.90
37478;DHT22;23334;54.316;10.182;2022-12-29T01:53:21;8.90;99.90
37478;DHT22;23334;54.316;10.182;2022-12-29T01:55:52;8.90;99.90
37478;DHT22;23334;54.316;10.182;2022-12-29T01:58:20;8.90;99.90
37478;DHT22;23334;54.316;10.182;2022-12-29T02:00:46;8.90;99.90
37478;DHT22;23334;54.316;10.182;2022-12-29T02:08:06;8.90;99.90
37478;DHT22;23334;54.316;10.182;2022-12-29T02:10:35;9.00;99.90
37478;DHT22;23334;54.316;10.182;2022-12-29T02:13:00;9.00;99.90
37478;DHT22;23334;54.316;10.182;2022-12-29T02:18:40;9.00;99.90
37478;DHT22;23334;54.316;10.182;2022-12-29T02:21:20;9.10;99.90
37478;DHT22;23334;54.316;10.182;2022-12-29T02:27:12;9.10;99.90
37478;DHT22;23334;54.316;10.182;2022-12-29T02:30:11;9.10;99.90
37478;DHT22;23334;54.316;10.182;2022-12-29T02:38:33;9.20;99.90
37478;DHT22;23334;54.316;10.182;2022-12-29T02:42:06;9.10;99.90
37478;DHT22;23334;54.316;10.182;2022-12-29T02:44:34;9.10;99.90
37478;DHT22;23334;54.316;10.182;2022-12-29T02:50:10;9.10;99.90
37478;DHT22;23334;54.316;10.182;2022-12-29T02:52:43;9.10;99.90
37478;DHT22;23334;54.316;10.182;2022-12-29T02:55:11;9.10;99.90
37478;DHT22;23334;54.316;10.182;2022-12-29T02:57:37;9.10;99.90
37478;DHT22;23334;54.316;10.182;2022-12-29T03:00:10;9.10;99.90
37478;DHT22;23334;54.316;10.182;2022-12-29T03:02:52;9.10;99.90
37478;DHT22;23334;54.316;10.182;2022-12-29T03:05:53;9.20;99.90
37478;DHT22;23334;54.316;10.182;2022-12-29T03:13:43;9.20;99.90
37478;DHT22;23334;54.316;10.182;2022-12-29T03:16:35;9.20;99.90
37478;DHT22;23334;54.316;10.182;2022-12-29T03:19:10;9.20;99.90
37478;DHT22;23334;54.316;10.182;2022-12-29T03:21:46;9.20;99.90
37478;DHT22;23334;54.316;10.182;2022-12-29T03:24:35;9.20;99.90
37478;DHT22;23334;54.316;10.182;2022-12-29T03:27:04;9.20;99.90
37478;DHT22;23334;54.316;10.182;2022-12-29T03:29:38;9.30;99.90
37478;DHT22;23334;54.316;10.182;2022-12-29T03:32:07;9.30;99.90
37478;DHT22;23334;54.316;10.182;2022-12-29T03:34:34;9.30;99.90
37478;DHT22;23334;54.316;10.182;2022-12-29T03:37:06;9.40;99.90
37478;DHT22;23334;54.316;10.182;2022-12-29T03:39:35;9.40;99.90
37478;DHT22;23334;54.316;10.182;2022-12-29T03:42:13;9.40;99.90
37478;DHT22;23334;54.316;10.182;2022-12-29T03:44:41;9.40;99.90
37478;DHT22;23334;54.316;10.182;2022-12-29T03:47:09;9.50;99.90
37478;DHT22;23334;54.316;10.182;2022-12-29T03:49:35;9.50;99.90
37478;DHT22;23334;54.316;10.182;2022-12-29T03:52:01;9.50;99.90
37478;DHT22;23334;54.316;10.182;2022-12-29T03:54:26;9.50;99.90
37478;DHT22;23334;54.316;10.182;2022-12-29T03:56:52;9.60;99.90
37478;DHT22;23334;54.316;10.182;2022-12-29T03:59:17;9.60;99.90
37478;DHT22;23334;54.316;10.182;2022-12-29T04:01:42;9.60;99.90
37478;DHT22;23334;54.316;10.182;2022-12-29T04:04:08;9.60;99.90
37478;DHT22;23334;54.316;10.182;2022-12-29T04:06:33;9.60;99.90
37478;DHT22;23334;54.316;10.182;2022-12-29T04:11:25;9.70;99.90
37478;DHT22;23334;54.316;10.182;2022-12-29T04:13:50;9.70;99.90
37478;DHT22;23334;54.316;10.182;2022-12-29T04:16:16;9.70;99.90
37478;DHT22;23334;54.316;10.182;2022-12-29T04:18:41;9.70;99.90
37478;DHT22;23334;54.316;10.182;2022-12-29T04:21:07;9.80;99.90
37478;DHT22;23334;54.316;10.182;2022-12-29T04:23:38;9.80;99.90
37478;DHT22;23334;54.316;10.182;2022-12-29T04:26:05;9.80;99.90
37478;DHT22;23334;54.316;10.182;2022-12-29T04:28:35;9.80;99.90
37478;DHT22;23334;54.316;10.182;2022-12-29T04:31:03;9.80;99.90
37478;DHT22;23334;54.316;10.182;2022-12-29T04:35:55;9.80;99.90
37478;DHT22;23334;54.316;10.182;2022-12-29T04:38:22;9.80;99.90
37478;DHT22;23334;54.316;10.182;2022-12-29T04:40:48;9.80;99.90
37478;DHT22;23334;54.316;10.182;2022-12-29T04:43:14;9.80;99.90
37478;DHT22;23334;54.316;10.182;2022-12-29T04:45:44;9.80;99.90
37478;DHT22;23334;54.316;10.182;2022-12-29T04:48:10;9.80;99.90
37478;DHT22;23334;54.316;10.182;2022-12-29T04:50:36;9.80;99.90
37478;DHT22;23334;54.316;10.182;2022-12-29T04:53:01;9.80;99.90
37478;DHT22;23334;54.316;10.182;2022-12-29T04:55:27;9.80;99.90
37478;DHT22;23334;54.316;10.182;2022-12-29T04:57:52;9.80;99.90
37478;DHT22;23334;54.316;10.182;2022-12-29T05:02:44;9.80;99.90
37478;DHT22;23334;54.316;10.182;2022-12-29T05:05:10;9.80;99.90
37478;DHT22;23334;54.316;10.182;2022-12-29T05:10:02;9.80;99.90
37478;DHT22;23334;54.316;10.182;2022-12-29T05:12:32;9.80;99.90
37478;DHT22;23334;54.316;10.182;2022-12-29T05:14:58;9.90;99.90
37478;DHT22;23334;54.316;10.182;2022-12-29T05:17:24;9.90;99.90
37478;DHT22;23334;54.316;10.182;2022-12-29T05:19:49;9.90;99.90
37478;DHT22;23334;54.316;10.182;2022-12-29T05:24:41;10.00;99.90
37478;DHT22;23334;54.316;10.182;2022-12-29T05:27:06;10.00;99.90
37478;DHT22;23334;54.316;10.182;2022-12-29T05:29:32;10.10;99.90
37478;DHT22;23334;54.316;10.182;2022-12-29T05:31:57;10.10;99.90
37478;DHT22;23334;54.316;10.182;2022-12-29T05:34:23;10.00;99.90
37478;DHT22;23334;54.316;10.182;2022-12-29T05:36:48;10.00;99.90
37478;DHT22;23334;54.316;10.182;2022-12-29T05:39:14;9.90;99.90
37478;DHT22;23334;54.316;10.182;2022-12-29T05:41:39;9.90;99.90
37478;DHT22;23334;54.316;10.182;2022-12-29T05:44:05;9.90;99.90
37478;DHT22;23334;54.316;10.182;2022-12-29T05:46:30;9.90;99.90
37478;DHT22;23334;54.316;10.182;2022-12-29T05:48:56;9.80;99.90
37478;DHT22;23334;54.316;10.182;2022-12-29T05:51:21;9.80;99.90
37478;DHT22;23334;54.316;10.182;2022-12-29T05:53:47;9.80;99.90
37478;DHT22;23334;54.316;10.182;2022-12-29T06:01:04;9.80;99.90
37478;DHT22;23334;54.316;10.182;2022-12-29T06:03:30;9.80;99.90
37478;DHT22;23334;54.316;10.182;2022-12-29T06:08:21;9.90;99.90
37478;DHT22;23334;54.316;10.182;2022-12-29T06:10:47;9.90;99.90
37478;DHT22;23334;54.316;10.182;2022-12-29T06:15:38;9.90;99.90
37478;DHT22;23334;54.316;10.182;2022-12-29T06:20:30;9.90;99.90
37478;DHT22;23334;54.316;10.182;2022-12-29T06:22:55;9.90;99.90
37478;DHT22;23334;54.316;10.182;2022-12-29T06:25:20;9.90;99.90
37478;DHT22;23334;54.316;10.182;2022-12-29T06:27:46;9.80;99.90
37478;DHT22;23334;54.316;10.182;2022-12-29T06:30:12;9.70;99.90
37478;DHT22;23334;54.316;10.182;2022-12-29T06:32:38;9.70;99.90
37478;DHT22;23334;54.316;10.182;2022-12-29T06:35:04;9.60;99.90
37478;DHT22;23334;54.316;10.182;2022-12-29T06:37:31;9.60;99.90
37478;DHT22;23334;54.316;10.182;2022-12-29T06:39:57;9.70;99.90
37478;DHT22;23334;54.316;10.182;2022-12-29T06:42:22;9.70;99.90
37478;DHT22;23334;54.316;10.182;2022-12-29T06:44:48;9.70;99.90
37478;DHT22;23334;54.316;10.182;2022-12-29T06:47:13;9.70;99.90
37478;DHT22;23334;54.316;10.182;2022-12-29T06:49:39;9.70;99.90
37478;DHT22;23334;54.316;10.182;2022-12-29T06:54:31;9.70;99.90
37478;DHT22;23334;54.316;10.182;2022-12-29T06:56:58;9.70;99.90
37478;DHT22;23334;54.316;10.182;2022-12-29T06:59:24;9.60;99.90
37478;DHT22;23334;54.316;10.182;2022-12-29T07:01:50;9.70;99.90
37478;DHT22;23334;54.316;10.182;2022-12-29T07:04:16;9.70;99.90
37478;DHT22;23334;54.316;10.182;2022-12-29T07:06:41;9.70;99.90
37478;DHT22;23334;54.316;10.182;2022-12-29T07:09:08;10.90;99.90
37478;DHT22;23334;54.316;10.182;2022-12-29T07:11:33;9.80;99.90
37478;DHT22;23334;54.316;10.182;2022-12-29T07:16:25;9.90;99.90
37478;DHT22;23334;54.316;10.182;2022-12-29T07:18:51;9.90;99.90
37478;DHT22;23334;54.316;10.182;2022-12-29T07:23:43;10.00;99.90
37478;DHT22;23334;54.316;10.182;2022-12-29T07:26:11;10.00;99.90
37478;DHT22;23334;54.316;10.182;2022-12-29T07:33:30;9.90;99.90
37478;DHT22;23334;54.316;10.182;2022-12-29T07:35:56;9.90;99.90
37478;DHT22;23334;54.316;10.182;2022-12-29T07:38:22;9.90;99.90
37478;DHT22;23334;54.316;10.182;2022-12-29T07:40:49;9.90;99.90
37478;DHT22;23334;54.316;10.182;2022-12-29T07:43:14;9.90;99.90
37478;DHT22;23334;54.316;10.182;2022-12-29T07:45:39;9.80;99.90
37478;DHT22;23334;54.316;10.182;2022-12-29T07:48:05;9.80;99.90
37478;DHT22;23334;54.316;10.182;2022-12-29T07:50:33;9.90;99.90
37478;DHT22;23334;54.316;10.182;2022-12-29T07:52:59;9.90;99.90
37478;DHT22;23334;54.316;10.182;2022-12-29T07:55:24;9.90;99.90
37478;DHT22;23334;54.316;10.182;2022-12-29T07:57:53;9.90;99.90
37478;DHT22;23334;54.316;10.182;2022-12-29T08:00:19;10.00;99.90
37478;DHT22;23334;54.316;10.182;2022-12-29T08:02:44;9.90;99.90
37478;DHT22;23334;54.316;10.182;2022-12-29T08:05:10;10.00;99.90
37478;DHT22;23334;54.316;10.182;2022-12-29T08:07:35;10.00;99.90
37478;DHT22;23334;54.316;10.182;2022-12-29T08:12:26;10.00;99.90
37478;DHT22;23334;54.316;10.182;2022-12-29T08:14:52;10.10;99.90
37478;DHT22;23334;54.316;10.182;2022-12-29T08:17:17;10.00;99.90
37478;DHT22;23334;54.316;10.182;2022-12-29T08:22:09;10.00;99.90
37478;DHT22;23334;54.316;10.182;2022-12-29T08:24:35;10.00;99.90
37478;DHT22;23334;54.316;10.182;2022-12-29T08:27:00;10.00;99.90
37478;DHT22;23334;54.316;10.182;2022-12-29T08:29:26;10.10;99.90
37478;DHT22;23334;54.316;10.182;2022-12-29T08:31:51;10.00;99.90
37478;DHT22;23334;54.316;10.182;2022-12-29T08:34:17;10.00;99.90
37478;DHT22;23334;54.316;10.182;2022-12-29T08:41:34;10.20;99.90
37478;DHT22;23334;54.316;10.182;2022-12-29T08:44:17;10.20;99.90
37478;DHT22;23334;54.316;10.182;2022-12-29T08:46:43;10.20;99.90
37478;DHT22;23334;54.316;10.182;2022-12-29T08:49:08;10.20;99.90
37478;DHT22;23334;54.316;10.182;2022-12-29T08:54:00;10.10;99.90
37478;DHT22;23334;54.316;10.182;2022-12-29T08:58:52;10.00;99.90
37478;DHT22;23334;54.316;10.182;2022-12-29T09:01:18;10.00;99.90
37478;DHT22;23334;54.316;10.182;2022-12-29T09:03:44;10.00;99.90
37478;DHT22;23334;54.316;10.182;2022-12-29T09:06:09;9.90;99.90
37478;DHT22;23334;54.316;10.182;2022-12-29T09:08:35;9.90;99.90
37478;DHT22;23334;54.316;10.182;2022-12-29T09:11:19;10.10;99.90
37478;DHT22;23334;54.316;10.182;2022-12-29T09:13:45;10.20;99.90
37478;DHT22;23334;54.316;10.182;2022-12-29T09:16:11;10.30;99.90
37478;DHT22;23334;54.316;10.182;2022-12-29T09:18:36;10.50;99.90
37478;DHT22;23334;54.316;10.182;2022-12-29T09:21:04;11.10;99.90
37478;DHT22;23334;54.316;10.182;2022-12-29T09:25:57;11.30;99.90
37478;DHT22;23334;54.316;10.182;2022-12-29T09:28:23;11.10;99.90
37478;DHT22;23334;54.316;10.182;2022-12-29T09:33:16;10.70;99.90
37478;DHT22;23334;54.316;10.182;2022-12-29T09:35:43;10.40;99.90
37478;DHT22;23334;54.316;10.182;2022-12-29T09:38:09;10.40;99.90
37478;DHT22;23334;54.316;10.182;2022-12-29T09:43:11;10.50;99.90
37478;DHT22;23334;54.316;10.182;2022-12-29T09:45:44;10.60;99.90
37478;DHT22;23334;54.316;10.182;2022-12-29T09:48:21;10.70;99.90
37478;DHT22;23334;54.316;10.182;2022-12-29T09:50:51;10.70;99.90
37478;DHT22;23334;54.316;10.182;2022-12-29T09:53:38;10.60;99.90
37478;DHT22;23334;54.316;10.182;2022-12-29T09:59:05;10.70;99.90
37478;DHT22;23334;54.316;10.182;2022-12-29T10:01:46;10.80;99.90
37478;DHT22;23334;54.316;10.182;2022-12-29T10:04:14;10.90;99.90
37478;DHT22;23334;54.316;10.182;2022-12-29T10:06:57;11.30;99.90
37478;DHT22;23334;54.316;10.182;2022-12-29T10:09:43;11.50;99.90
37478;DHT22;23334;54.316;10.182;2022-12-29T10:15:04;11.30;99.90
37478;DHT22;23334;54.316;10.182;2022-12-29T10:20:26;11.20;99.90
37478;DHT22;23334;54.316;10.182;2022-12-29T10:25:46;11.20;99.90
37478;DHT22;23334;54.316;10.182;2022-12-29T10:28:23;11.20;99.90
37478;DHT22;23334;54.316;10.182;2022-12-29T10:30:49;11.20;99.90
37478;DHT22;23334;54.316;10.182;2022-12-29T10:33:19;11.10;99.90
37478;DHT22;23334;54.316;10.182;2022-12-29T10:35:47;11.00;99.90
37478;DHT22;23334;54.316;10.182;2022-12-29T10:38:40;11.10;99.90
37478;DHT22;23334;54.316;10.182;2022-12-29T10:41:25;11.00;99.90
37478;DHT22;23334;54.316;10.182;2022-12-29T10:43:54;11.00;99.90
37478;DHT22;23334;54.316;10.182;2022-12-29T10:46:30;11.00;99.90
37478;DHT22;23334;54.316;10.182;2022-12-29T10:48:58;11.10;99.90
37478;DHT22;23334;54.316;10.182;2022-12-29T10:51:44;11.20;99.90
37478;DHT22;23334;54.316;10.182;2022-12-29T10:54:14;11.30;99.90
37478;DHT22;23334;54.316;10.182;2022-12-29T10:57:01;11.30;99.90
37478;DHT22;23334;54.316;10.182;2022-12-29T10:59:31;11.30;99.90
37478;DHT22;23334;54.316;10.182;2022-12-29T11:07:18;11.10;99.90
37478;DHT22;23334;54.316;10.182;2022-12-29T11:09:45;11.10;99.90
37478;DHT22;23334;54.316;10.182;2022-12-29T11:12:28;11.10;99.90
37478;DHT22;23334;54.316;10.182;2022-12-29T11:17:44;11.10;99.90
37478;DHT22;23334;54.316;10.182;2022-12-29T11:20:32;11.10;99.90
37478;DHT22;23334;54.316;10.182;2022-12-29T11:22:59;11.10;99.90
37478;DHT22;23334;54.316;10.182;2022-12-29T11:25:25;11.00;99.90
37478;DHT22;23334;54.316;10.182;2022-12-29T11:28:00;10.90;99.90
37478;DHT22;23334;54.316;10.182;2022-12-29T11:30:29;10.70;99.90
37478;DHT22;23334;54.316;10.182;2022-12-29T11:32:56;10.60;99.90
37478;DHT22;23334;54.316;10.182;2022-12-29T11:35:40;10.50;99.90
37478;DHT22;23334;54.316;10.182;2022-12-29T11:38:24;10.40;99.90
37478;DHT22;23334;54.316;10.182;2022-12-29T11:40:51;10.40;99.90
37478;DHT22;23334;54.316;10.182;2022-12-29T11:43:33;10.40;99.90
37478;DHT22;23334;54.316;10.182;2022-12-29T11:46:00;10.30;99.90
37478;DHT22;23334;54.316;10.182;2022-12-29T11:48:32;10.20;99.90
37478;DHT22;23334;54.316;10.182;2022-12-29T11:50:59;10.30;99.90
37478;DHT22;23334;54.316;10.182;2022-12-29T11:53:28;10.30;99.90
37478;DHT22;23334;54.316;10.182;2022-12-29T11:56:00;10.30;99.90
37478;DHT22;23334;54.316;10.182;2022-12-29T11:58:33;10.20;99.90
37478;DHT22;23334;54.316;10.182;2022-12-29T12:01:16;10.20;99.90
37478;DHT22;23334;54.316;10.182;2022-12-29T12:04:07;10.20;99.90
37478;DHT22;23334;54.316;10.182;2022-12-29T12:06:38;10.30;99.90
37478;DHT22;23334;54.316;10.182;2022-12-29T12:09:16;10.30;99.90
37478;DHT22;23334;54.316;10.182;2022-12-29T12:11:45;10.40;99.90
37478;DHT22;23334;54.316;10.182;2022-12-29T12:14:25;10.50;99.90
37478;DHT22;23334;54.316;10.182;2022-12-29T12:17:02;10.50;99.90
37478;DHT22;23334;54.316;10.182;2022-12-29T12:19:38;10.30;99.90
37478;DHT22;23334;54.316;10.182;2022-12-29T12:22:13;10.30;99.90
37478;DHT22;23334;54.316;10.182;2022-12-29T12:24:48;10.10;99.90
37478;DHT22;23334;54.316;10.182;2022-12-29T12:27:22;10.10;99.90
37478;DHT22;23334;54.316;10.182;2022-12-29T12:29:56;10.00;99.90
37478;DHT22;23334;54.316;10.182;2022-12-29T12:32:42;10.10;99.90
37478;DHT22;23334;54.316;10.182;2022-12-29T12:35:13;10.10;99.90
37478;DHT22;23334;54.316;10.182;2022-12-29T12:37:48;10.10;99.90
37478;DHT22;23334;54.316;10.182;2022-12-29T12:43:12;10.10;99.90
37478;DHT22;23334;54.316;10.182;2022-12-29T12:46:07;10.00;99.90
37478;DHT22;23334;54.316;10.182;2022-12-29T12:49:21;9.90;99.90
37478;DHT22;23334;54.316;10.182;2022-12-29T13:01:10;9.70;99.90
37478;DHT22;23334;54.316;10.182;2022-12-29T13:17:34;9.40;99.90
37478;DHT22;23334;54.316;10.182;2022-12-29T13:20:04;9.30;99.90
37478;DHT22;23334;54.316;10.182;2022-12-29T13:22:46;9.30;99.90
37478;DHT22;23334;54.316;10.182;2022-12-29T13:25:39;9.30;99.90
37478;DHT22;23334;54.316;10.182;2022-12-29T13:31:04;9.10;99.90
37478;DHT22;23334;54.316;10.182;2022-12-29T13:33:56;9.10;99.90
37478;DHT22;23334;54.316;10.182;2022-12-29T13:36:52;9.10;99.90
37478;DHT22;23334;54.316;10.182;2022-12-29T13:41:51;9.00;99.90
37478;DHT22;23334;54.316;10.182;2022-12-29T13:46:49;9.00;99.90
37478;DHT22;23334;54.316;10.182;2022-12-29T13:49:20;8.90;99.90
37478;DHT22;23334;54.316;10.182;2022-12-29T13:51:50;9.00;99.90
37478;DHT22;23334;54.316;10.182;2022-12-29T13:57:11;9.00;99.90
37478;DHT22;23334;54.316;10.182;2022-12-29T14:00:00;9.00;99.90
37478;DHT22;23334;54.316;10.182;2022-12-29T14:07:46;9.00;99.90
37478;DHT22;23334;54.316;10.182;2022-12-29T14:10:36;9.10;99.90
37478;DHT22;23334;54.316;10.182;2022-12-29T14:13:12;9.10;99.90
37478;DHT22;23334;54.316;10.182;2022-12-29T14:15:39;9.10;99.90
37478;DHT22;23334;54.316;10.182;2022-12-29T14:18:21;9.10;99.90
37478;DHT22;23334;54.316;10.182;2022-12-29T14:21:11;9.10;99.90
37478;DHT22;23334;54.316;10.182;2022-12-29T14:23:45;9.10;99.90
37478;DHT22;23334;54.316;10.182;2022-12-29T14:28:53;9.10;99.90
37478;DHT22;23334;54.316;10.182;2022-12-29T14:39:02;9.10;99.90
37478;DHT22;23334;54.316;10.182;2022-12-29T14:41:40;9.10;99.90
37478;DHT22;23334;54.316;10.182;2022-12-29T14:44:18;9.00;99.90
37478;DHT22;23334;54.316;10.182;2022-12-29T14:49:20;9.00;99.90
37478;DHT22;23334;54.316;10.182;2022-12-29T14:51:50;9.00;99.90
37478;DHT22;23334;54.316;10.182;2022-12-29T14:56:59;9.10;99.90
37478;DHT22;23334;54.316;10.182;2022-12-29T14:59:26;9.10;99.90
37478;DHT22;23334;54.316;10.182;2022-12-29T15:01:53;9.10;99.90
37478;DHT22;23334;54.316;10.182;2022-12-29T15:04:22;9.00;99.90
37478;DHT22;23334;54.316;10.182;2022-12-29T15:06:50;9.10;99.90
37478;DHT22;23334;54.316;10.182;2022-12-29T15:11:54;9.10;99.90
37478;DHT22;23334;54.316;10.182;2022-12-29T15:14:35;9.10;99.90
37478;DHT22;23334;54.316;10.182;2022-12-29T15:17:02;9.10;99.90
37478;DHT22;23334;54.316;10.182;2022-12-29T15:19:33;9.10;99.90
37478;DHT22;23334;54.316;10.182;2022-12-29T15:22:00;9.10;99.90
37478;DHT22;23334;54.316;10.182;2022-12-29T15:24:26;9.10;99.90
37478;DHT22;23334;54.316;10.182;2022-12-29T15:26:53;9.10;99.90
37478;DHT22;23334;54.316;10.182;2022-12-29T15:29:36;9.00;99.90
37478;DHT22;23334;54.316;10.182;2022-12-29T15:34:45;9.00;99.90
37478;DHT22;23334;54.316;10.182;2022-12-29T15:37:22;9.00;99.90
37478;DHT22;23334;54.316;10.182;2022-12-29T15:39:48;8.90;99.90
37478;DHT22;23334;54.316;10.182;2022-12-29T15:42:43;8.90;99.90
37478;DHT22;23334;54.316;10.182;2022-12-29T15:45:12;8.90;99.90
37478;DHT22;23334;54.316;10.182;2022-12-29T15:47:40;8.90;99.90
37478;DHT22;23334;54.316;10.182;2022-12-29T15:50:14;8.90;99.90
37478;DHT22;23334;54.316;10.182;2022-12-29T15:52:40;8.90;99.90
37478;DHT22;23334;54.316;10.182;2022-12-29T15:55:28;8.80;99.90
37478;DHT22;23334;54.316;10.182;2022-12-29T15:57:59;8.80;99.90
37478;DHT22;23334;54.316;10.182;2022-12-29T16:00:32;8.70;99.90
37478;DHT22;23334;54.316;10.182;2022-12-29T16:03:00;8.50;99.90
37478;DHT22;23334;54.316;10.182;2022-12-29T16:05:38;8.60;99.90
37478;DHT22;23334;54.316;10.182;2022-12-29T16:08:31;8.60;99.90
37478;DHT22;23334;54.316;10.182;2022-12-29T16:10:59;8.60;99.90
37478;DHT22;23334;54.316;10.182;2022-12-29T16:13:34;10.80;99.90
37478;DHT22;23334;54.316;10.182;2022-12-29T16:16:12;8.50;99.90
37478;DHT22;23334;54.316;10.182;2022-12-29T16:18:39;8.50;99.90
37478;DHT22;23334;54.316;10.182;2022-12-29T16:21:11;8.50;99.90
37478;DHT22;23334;54.316;10.182;2022-12-29T16:23:43;8.50;99.90
37478;DHT22;23334;54.316;10.182;2022-12-29T16:26:16;8.50;99.90
37478;DHT22;23334;54.316;10.182;2022-12-29T16:28:42;8.50;99.90
37478;DHT22;23334;54.316;10.182;2022-12-29T16:31:24;8.50;99.90
37478;DHT22;23334;54.316;10.182;2022-12-29T16:33:52;8.50;99.90
37478;DHT22;23334;54.316;10.182;2022-12-29T16:36:27;8.40;99.90
37478;DHT22;23334;54.316;10.182;2022-12-29T16:41:41;8.30;99.90
37478;DHT22;23334;54.316;10.182;2022-12-29T16:44:36;8.20;99.90
37478;DHT22;23334;54.316;10.182;2022-12-29T16:47:16;8.20;99.90
37478;DHT22;23334;54.316;10.182;2022-12-29T16:49:47;8.10;99.90
37478;DHT22;23334;54.316;10.182;2022-12-29T16:52:25;8.10;99.90
37478;DHT22;23334;54.316;10.182;2022-12-29T16:54:55;8.00;99.90
37478;DHT22;23334;54.316;10.182;2022-12-29T16:57:35;7.90;99.90
37478;DHT22;23334;54.316;10.182;2022-12-29T17:00:05;7.80;99.90
37478;DHT22;23334;54.316;10.182;2022-12-29T17:02:33;7.90;99.90
37478;DHT22;23334;54.316;10.182;2022-12-29T17:04:59;7.80;99.90
37478;DHT22;23334;54.316;10.182;2022-12-29T17:07:27;7.80;99.90
37478;DHT22;23334;54.316;10.182;2022-12-29T17:09:53;7.80;99.90
37478;DHT22;23334;54.316;10.182;2022-12-29T17:12:27;7.80;99.90
37478;DHT22;23334;54.316;10.182;2022-12-29T17:14:58;7.70;99.90
37478;DHT22;23334;54.316;10.182;2022-12-29T17:19:59;7.60;99.90
37478;DHT22;23334;54.316;10.182;2022-12-29T17:22:28;7.50;99.90
37478;DHT22;23334;54.316;10.182;2022-12-29T17:24:56;7.60;99.90
37478;DHT22;23334;54.316;10.182;2022-12-29T17:27:29;7.60;99.90
37478;DHT22;23334;54.316;10.182;2022-12-29T17:29:58;7.80;99.90
37478;DHT22;23334;54.316;10.182;2022-12-29T17:32:26;7.80;99.90
37478;DHT22;23334;54.316;10.182;2022-12-29T17:34:52;7.80;99.90
37478;DHT22;23334;54.316;10.182;2022-12-29T17:39:46;7.80;99.90
37478;DHT22;23334;54.316;10.182;2022-12-29T17:44:37;7.80;99.90
37478;DHT22;23334;54.316;10.182;2022-12-29T17:47:03;7.80;99.90
37478;DHT22;23334;54.316;10.182;2022-12-29T17:49:28;7.90;99.90
37478;DHT22;23334;54.316;10.182;2022-12-29T17:51:54;7.80;99.90
37478;DHT22;23334;54.316;10.182;2022-12-29T17:54:22;7.90;99.90
37478;DHT22;23334;54.316;10.182;2022-12-29T17:59:15;8.00;99.90
37478;DHT22;23334;54.316;10.182;2022-12-29T18:01:43;8.00;99.90
37478;DHT22;23334;54.316;10.182;2022-12-29T18:04:13;8.00;99.90
37478;DHT22;23334;54.316;10.182;2022-12-29T18:06:40;8.00;99.90
37478;DHT22;23334;54.316;10.182;2022-12-29T18:09:05;8.00;99.90
37478;DHT22;23334;54.316;10.182;2022-12-29T18:11:40;8.00;99.90
37478;DHT22;23334;54.316;10.182;2022-12-29T18:14:13;8.00;99.90
37478;DHT22;23334;54.316;10.182;2022-12-29T18:16:39;8.00;99.90
37478;DHT22;23334;54.316;10.182;2022-12-29T18:19:04;8.10;99.90
37478;DHT22;23334;54.316;10.182;2022-12-29T18:21:30;8.00;99.90
37478;DHT22;23334;54.316;10.182;2022-12-29T18:23:55;8.00;99.90
37478;DHT22;23334;54.316;10.182;2022-12-29T18:26:23;8.00;99.90
37478;DHT22;23334;54.316;10.182;2022-12-29T18:28:50;8.00;99.90
37478;DHT22;23334;54.316;10.182;2022-12-29T18:31:25;8.10;99.90
37478;DHT22;23334;54.316;10.182;2022-12-29T18:33:52;8.10;99.90
37478;DHT22;23334;54.316;10.182;2022-12-29T18:36:19;8.10;99.90
37478;DHT22;23334;54.316;10.182;2022-12-29T18:38:45;8.00;99.90
37478;DHT22;23334;54.316;10.182;2022-12-29T18:41:15;8.10;99.90
37478;DHT22;23334;54.316;10.182;2022-12-29T18:43:41;8.10;99.90
37478;DHT22;23334;54.316;10.182;2022-12-29T18:46:07;8.10;99.90
37478;DHT22;23334;54.316;10.182;2022-12-29T18:48:32;8.10;99.90
37478;DHT22;23334;54.316;10.182;2022-12-29T18:53:24;8.10;99.90
37478;DHT22;23334;54.316;10.182;2022-12-29T18:55:51;8.10;99.90
37478;DHT22;23334;54.316;10.182;2022-12-29T18:58:16;8.00;99.90
37478;DHT22;23334;54.316;10.182;2022-12-29T19:00:42;8.10;99.90
37478;DHT22;23334;54.316;10.182;2022-12-29T19:03:11;8.00;99.90
37478;DHT22;23334;54.316;10.182;2022-12-29T19:05:39;8.00;99.90